sensor_id;sensor_type;location;lat;lon;timestamp;temperature;humidity
18741;DHT22;9499;52.472;13.448;2023-06-10T00:01:22;18.40;1.00
18741;DHT22;9499;52.472;13.448;2023-06-10T00:03:49;18.40;1.00
18741;DHT22;9499;52.472;13.448;2023-06-10T00:06:17;18.40;1.00
18741;DHT22;9499;52.472;13.448;2023-06-10T00:08:43;18.40;1.00
18741;DHT22;9499;52.472;13.448;2023-06-10T00:11:12;18.40;1.00
18741;DHT22;9499;52.472;13.448;2023-06-10T00:13:39;18.40;1.00
18741;DHT22;9499;52.472;13.448;2023-06-10T00:16:06;18.30;1.00
18741;DHT22;9499;52.472;13.448;2023-06-10T00:18:33;18.30;1.00
18741;DHT22;9499;52.472;13.448;2023-06-10T00:21:02;18.30;1.00
18741;DHT22;9499;52.472;13.448;2023-06-10T00:23:29;18.30;1.00
18741;DHT22;9499;52.472;13.448;2023-06-10T00:25:58;18.20;47.20
18741;DHT22;9499;52.472;13.448;2023-06-10T00:28:24;18.30;4.40
18741;DHT22;9499;52.472;13.448;2023-06-10T00:30:51;18.20;1.00
18741;DHT22;9499;52.472;13.448;2023-06-10T00:33:19;18.30;1.00
18741;DHT22;9499;52.472;13.448;2023-06-10T00:35:46;18.10;80.00
18741;DHT22;9499;52.472;13.448;2023-06-10T00:38:13;18.10;99.90
18741;DHT22;9499;52.472;13.448;2023-06-10T00:40:40;18.10;99.90
18741;DHT22;9499;52.472;13.448;2023-06-10T00:43:07;18.00;99.90
18741;DHT22;9499;52.472;13.448;2023-06-10T00:45:34;17.90;99.90
18741;DHT22;9499;52.472;13.448;2023-06-10T00:48:01;17.90;99.90
18741;DHT22;9499;52.472;13.448;2023-06-10T00:50:29;17.90;99.90
18741;DHT22;9499;52.472;13.448;2023-06-10T00:52:56;17.90;99.90
18741;DHT22;9499;52.472;13.448;2023-06-10T00:55:23;17.80;99.90
18741;DHT22;9499;52.472;13.448;2023-06-10T00:57:50;17.90;99.90
18741;DHT22;9499;52.472;13.448;2023-06-10T01:00:17;17.90;99.90
18741;DHT22;9499;52.472;13.448;2023-06-10T01:02:44;17.90;99.90
18741;DHT22;9499;52.472;13.448;2023-06-10T01:05:10;17.90;99.90
18741;DHT22;9499;52.472;13.448;2023-06-10T01:07:45;17.90;99.90
18741;DHT22;9499;52.472;13.448;2023-06-10T01:10:17;17.90;99.90
18741;DHT22;9499;52.472;13.448;2023-06-10T01:12:49;17.90;99.90
18741;DHT22;9499;52.472;13.448;2023-06-10T01:15:18;17.80;99.90
18741;DHT22;9499;52.472;13.448;2023-06-10T01:17:58;17.80;99.90
18741;DHT22;9499;52.472;13.448;2023-06-10T01:20:25;17.70;99.90
18741;DHT22;9499;52.472;13.448;2023-06-10T01:22:53;17.70;99.90
18741;DHT22;9499;52.472;13.448;2023-06-10T01:25:20;17.70;99.90
18741;DHT22;9499;52.472;13.448;2023-06-10T01:27:54;17.70;99.90
18741;DHT22;9499;52.472;13.448;2023-06-10T01:30:27;17.70;99.90
18741;DHT22;9499;52.472;13.448;2023-06-10T01:32:55;17.70;99.90
18741;DHT22;9499;52.472;13.448;2023-06-10T01:35:24;17.70;99.90
18741;DHT22;9499;52.472;13.448;2023-06-10T01:37:54;17.70;99.90
18741;DHT22;9499;52.472;13.448;2023-06-10T01:40:24;17.60;99.90
18741;DHT22;9499;52.472;13.448;2023-06-10T01:42:51;17.60;99.90
18741;DHT22;9499;52.472;13.448;2023-06-10T01:45:18;17.50;99.90
18741;DHT22;9499;52.472;13.448;2023-06-10T01:47:45;17.50;99.90
18741;DHT22;9499;52.472;13.448;2023-06-10T01:50:11;17.50;99.90
18741;DHT22;9499;52.472;13.448;2023-06-10T01:52:38;17.50;1.00
18741;DHT22;9499;52.472;13.448;2023-06-10T01:55:06;17.50;1.00
18741;DHT22;9499;52.472;13.448;2023-06-10T01:57:33;17.50;1.00
18741;DHT22;9499;52.472;13.448;2023-06-10T01:59:59;17.50;1.00
18741;DHT22;9499;52.472;13.448;2023-06-10T02:02:26;17.50;1.00
18741;DHT22;9499;52.472;13.448;2023-06-10T02:04:52;17.40;1.00
18741;DHT22;9499;52.472;13.448;2023-06-10T02:07:19;17.40;1.00
18741;DHT22;9499;52.472;13.448;2023-06-10T02:09:45;17.30;1.00
18741;DHT22;9499;52.472;13.448;2023-06-10T02:12:13;17.30;1.00
18741;DHT22;9499;52.472;13.448;2023-06-10T02:14:40;17.30;1.00
18741;DHT22;9499;52.472;13.448;2023-06-10T02:17:06;17.30;1.00
18741;DHT22;9499;52.472;13.448;2023-06-10T02:19:37;17.30;1.00
18741;DHT22;9499;52.472;13.448;2023-06-10T02:22:08;17.30;1.00
18741;DHT22;9499;52.472;13.448;2023-06-10T02:24:35;17.30;1.00
18741;DHT22;9499;52.472;13.448;2023-06-10T02:27:03;17.30;1.00
18741;DHT22;9499;52.472;13.448;2023-06-10T02:29:33;17.30;1.00
18741;DHT22;9499;52.472;13.448;2023-06-10T02:31:59;17.30;1.00
18741;DHT22;9499;52.472;13.448;2023-06-10T02:34:26;17.20;1.00
18741;DHT22;9499;52.472;13.448;2023-06-10T02:36:52;17.20;1.00
18741;DHT22;9499;52.472;13.448;2023-06-10T02:39:19;17.20;1.00
18741;DHT22;9499;52.472;13.448;2023-06-10T02:41:46;17.10;1.00
18741;DHT22;9499;52.472;13.448;2023-06-10T02:44:12;17.10;1.00
18741;DHT22;9499;52.472;13.448;2023-06-10T02:46:40;17.10;1.00
18741;DHT22;9499;52.472;13.448;2023-06-10T02:49:06;17.00;1.00
18741;DHT22;9499;52.472;13.448;2023-06-10T02:51:33;17.00;1.00
18741;DHT22;9499;52.472;13.448;2023-06-10T02:53:59;16.90;1.00
18741;DHT22;9499;52.472;13.448;2023-06-10T02:56:26;16.90;1.00
18741;DHT22;9499;52.472;13.448;2023-06-10T02:58:52;16.90;1.00
18741;DHT22;9499;52.472;13.448;2023-06-10T03:01:19;16.90;1.00
18741;DHT22;9499;52.472;13.448;2023-06-10T03:03:47;16.90;1.00
18741;DHT22;9499;52.472;13.448;2023-06-10T03:06:16;16.90;1.00
18741;DHT22;9499;52.472;13.448;2023-06-10T03:08:43;16.80;1.00
18741;DHT22;9499;52.472;13.448;2023-06-10T03:11:11;16.80;1.00
18741;DHT22;9499;52.472;13.448;2023-06-10T03:13:38;16.80;1.00
18741;DHT22;9499;52.472;13.448;2023-06-10T03:16:05;16.80;1.00
18741;DHT22;9499;52.472;13.448;2023-06-10T03:18:33;16.70;1.00
18741;DHT22;9499;52.472;13.448;2023-06-10T03:21:00;16.80;1.00
18741;DHT22;9499;52.472;13.448;2023-06-10T03:23:28;16.80;1.00
18741;DHT22;9499;52.472;13.448;2023-06-10T03:25:54;16.80;1.00
18741;DHT22;9499;52.472;13.448;2023-06-10T03:28:21;16.80;1.00
18741;DHT22;9499;52.472;13.448;2023-06-10T03:30:47;16.80;1.00
18741;DHT22;9499;52.472;13.448;2023-06-10T03:33:14;16.90;1.00
18741;DHT22;9499;52.472;13.448;2023-06-10T03:35:40;16.80;1.00
18741;DHT22;9499;52.472;13.448;2023-06-10T03:38:08;16.80;1.00
18741;DHT22;9499;52.472;13.448;2023-06-10T03:40:35;16.80;1.00
18741;DHT22;9499;52.472;13.448;2023-06-10T03:43:01;16.90;1.00
18741;DHT22;9499;52.472;13.448;2023-06-10T03:45:28;16.90;1.00
18741;DHT22;9499;52.472;13.448;2023-06-10T03:47:54;16.90;1.00
18741;DHT22;9499;52.472;13.448;2023-06-10T03:50:22;16.90;1.00
18741;DHT22;9499;52.472;13.448;2023-06-10T03:52:50;16.90;1.00
18741;DHT22;9499;52.472;13.448;2023-06-10T03:55:18;17.00;1.00
18741;DHT22;9499;52.472;13.448;2023-06-10T03:57:47;16.90;1.00
18741;DHT22;9499;52.472;13.448;2023-06-10T04:00:14;16.90;1.00
18741;DHT22;9499;52.472;13.448;2023-06-10T04:02:41;16.80;1.00
18741;DHT22;9499;52.472;13.448;2023-06-10T04:05:11;16.90;1.00
18741;DHT22;9499;52.472;13.448;2023-06-10T04:07:37;17.00;1.00
18741;DHT22;9499;52.472;13.448;2023-06-10T04:10:07;16.90;1.00
18741;DHT22;9499;52.472;13.448;2023-06-10T04:12:35;17.00;1.00
18741;DHT22;9499;52.472;13.448;2023-06-10T04:15:02;17.00;1.00
18741;DHT22;9499;52.472;13.448;2023-06-10T04:17:28;17.00;1.00
18741;DHT22;9499;52.472;13.448;2023-06-10T04:19:55;17.00;1.00
18741;DHT22;9499;52.472;13.448;2023-06-10T04:22:22;16.90;1.00
18741;DHT22;9499;52.472;13.448;2023-06-10T04:24:49;16.90;1.00
18741;DHT22;9499;52.472;13.448;2023-06-10T04:27:16;16.90;1.00
18741;DHT22;9499;52.472;13.448;2023-06-10T04:29:43;16.90;1.00
18741;DHT22;9499;52.472;13.448;2023-06-10T04:32:10;16.90;1.00
18741;DHT22;9499;52.472;13.448;2023-06-10T04:34:37;17.00;1.00
18741;DHT22;9499;52.472;13.448;2023-06-10T04:37:05;16.90;1.00
18741;DHT22;9499;52.472;13.448;2023-06-10T04:39:32;17.00;1.00
18741;DHT22;9499;52.472;13.448;2023-06-10T04:41:59;17.10;1.00
18741;DHT22;9499;52.472;13.448;2023-06-10T04:44:25;17.20;1.00
18741;DHT22;9499;52.472;13.448;2023-06-10T04:46:53;17.10;1.00
18741;DHT22;9499;52.472;13.448;2023-06-10T04:49:21;17.10;1.00
18741;DHT22;9499;52.472;13.448;2023-06-10T04:51:47;17.00;1.00
18741;DHT22;9499;52.472;13.448;2023-06-10T04:54:14;17.00;1.00
18741;DHT22;9499;52.472;13.448;2023-06-10T04:56:41;17.00;1.00
18741;DHT22;9499;52.472;13.448;2023-06-10T04:59:07;17.00;1.00
18741;DHT22;9499;52.472;13.448;2023-06-10T05:01:34;17.10;1.00
18741;DHT22;9499;52.472;13.448;2023-06-10T05:04:01;17.20;1.00
18741;DHT22;9499;52.472;13.448;2023-06-10T05:06:29;17.20;1.00
18741;DHT22;9499;52.472;13.448;2023-06-10T05:08:56;17.30;1.00
18741;DHT22;9499;52.472;13.448;2023-06-10T05:11:22;17.20;1.00
18741;DHT22;9499;52.472;13.448;2023-06-10T05:13:49;17.30;1.00
18741;DHT22;9499;52.472;13.448;2023-06-10T05:16:15;17.40;1.00
18741;DHT22;9499;52.472;13.448;2023-06-10T05:18:42;17.50;1.00
18741;DHT22;9499;52.472;13.448;2023-06-10T05:21:10;17.60;1.00
